sensor_id;sensor_type;location;lat;lon;timestamp;pressure;altitude;pressure_sealevel;temperature;humidity
64908;BME280;69061;52.236;5.188;2023-05-19T00:01:59;102775.41;;;11.98;72.11
64908;BME280;69061;52.236;5.188;2023-05-19T00:04:30;102769.13;;;11.93;73.62
64908;BME280;69061;52.236;5.188;2023-05-19T00:06:58;102769.28;;;11.97;73.80
64908;BME280;69061;52.236;5.188;2023-05-19T00:09:26;102772.28;;;11.95;73.73
64908;BME280;69061;52.236;5.188;2023-05-19T00:11:54;102766.00;;;11.91;72.24
64908;BME280;69061;52.236;5.188;2023-05-19T00:14:21;102743.53;;;11.80;73.66
64908;BME280;69061;52.236;5.188;2023-05-19T00:16:48;102757.56;;;11.89;73.26
64908;BME280;69061;52.236;5.188;2023-05-19T00:19:15;102751.28;;;11.85;72.96
64908;BME280;69061;52.236;5.188;2023-05-19T00:21:41;102759.09;;;11.90;72.92
64908;BME280;69061;52.236;5.188;2023-05-19T00:24:08;102753.78;;;11.90;72.51
64908;BME280;69061;52.236;5.188;2023-05-19T00:26:36;102751.75;;;11.87;73.83
64908;BME280;69061;52.236;5.188;2023-05-19T00:29:03;102744.28;;;11.80;73.90
64908;BME280;69061;52.236;5.188;2023-05-19T00:31:30;102750.19;;;11.86;74.36
64908;BME280;69061;52.236;5.188;2023-05-19T00:33:58;102751.94;;;11.82;73.25
64908;BME280;69061;52.236;5.188;2023-05-19T00:36:24;102751.50;;;11.80;73.27
64908;BME280;69061;52.236;5.188;2023-05-19T00:38:51;102754.78;;;11.77;73.44
64908;BME280;69061;52.236;5.188;2023-05-19T00:41:18;102753.25;;;11.76;72.42
64908;BME280;69061;52.236;5.188;2023-05-19T00:43:46;102740.50;;;11.60;72.55
64908;BME280;69061;52.236;5.188;2023-05-19T00:46:13;102735.50;;;11.59;72.51
64908;BME280;69061;52.236;5.188;2023-05-19T00:48:39;102741.72;;;11.63;72.66
64908;BME280;69061;52.236;5.188;2023-05-19T00:51:09;102750.38;;;11.60;73.46
64908;BME280;69061;52.236;5.188;2023-05-19T00:53:38;102743.81;;;11.57;74.11
64908;BME280;69061;52.236;5.188;2023-05-19T00:56:06;102744.91;;;11.56;73.70
64908;BME280;69061;52.236;5.188;2023-05-19T00:58:33;102736.31;;;11.51;74.60
64908;BME280;69061;52.236;5.188;2023-05-19T01:01:02;102748.66;;;11.55;73.90
64908;BME280;69061;52.236;5.188;2023-05-19T01:03:32;102741.50;;;11.47;75.00
64908;BME280;69061;52.236;5.188;2023-05-19T01:06:00;102756.84;;;11.50;74.28
64908;BME280;69061;52.236;5.188;2023-05-19T01:08:30;102743.72;;;11.45;75.18
64908;BME280;69061;52.236;5.188;2023-05-19T01:10:57;102745.28;;;11.46;75.94
64908;BME280;69061;52.236;5.188;2023-05-19T01:13:24;102743.41;;;11.46;75.54
64908;BME280;69061;52.236;5.188;2023-05-19T01:15:59;102742.81;;;11.41;75.17
64908;BME280;69061;52.236;5.188;2023-05-19T01:18:42;102739.00;;;11.42;76.16
64908;BME280;69061;52.236;5.188;2023-05-19T01:27:27;102726.66;;;11.46;78.02
64908;BME280;69061;52.236;5.188;2023-05-19T01:30:22;102730.41;;;11.45;77.42
64908;BME280;69061;52.236;5.188;2023-05-19T01:32:53;102718.38;;;11.39;75.52
64908;BME280;69061;52.236;5.188;2023-05-19T01:35:21;102723.03;;;11.42;75.19
64908;BME280;69061;52.236;5.188;2023-05-19T01:37:50;102725.44;;;11.35;76.12
64908;BME280;69061;52.236;5.188;2023-05-19T01:40:19;102725.09;;;11.36;76.86
64908;BME280;69061;52.236;5.188;2023-05-19T01:42:47;102719.47;;;11.38;77.85
64908;BME280;69061;52.236;5.188;2023-05-19T01:45:16;102713.53;;;11.32;78.33
64908;BME280;69061;52.236;5.188;2023-05-19T01:47:47;102699.91;;;11.34;77.12
64908;BME280;69061;52.236;5.188;2023-05-19T01:50:14;102711.19;;;11.39;77.48
64908;BME280;69061;52.236;5.188;2023-05-19T01:52:40;102699.91;;;11.34;79.24
64908;BME280;69061;52.236;5.188;2023-05-19T01:55:08;102703.97;;;11.40;78.33
64908;BME280;69061;52.236;5.188;2023-05-19T01:57:42;102707.91;;;11.34;79.04
64908;BME280;69061;52.236;5.188;2023-05-19T02:00:14;102709.78;;;11.33;77.00
64908;BME280;69061;52.236;5.188;2023-05-19T02:02:55;102713.41;;;11.28;77.77
64908;BME280;69061;52.236;5.188;2023-05-19T02:05:30;102702.34;;;11.18;78.20
64908;BME280;69061;52.236;5.188;2023-05-19T02:08:05;102707.03;;;11.21;78.42
64908;BME280;69061;52.236;5.188;2023-05-19T02:10:36;102703.78;;;11.15;79.36
64908;BME280;69061;52.236;5.188;2023-05-19T02:13:05;102707.81;;;11.21;79.89
64908;BME280;69061;52.236;5.188;2023-05-19T02:15:39;102711.84;;;11.27;78.98
64908;BME280;69061;52.236;5.188;2023-05-19T02:18:08;102711.28;;;11.13;77.42
64908;BME280;69061;52.236;5.188;2023-05-19T02:20:36;102712.22;;;11.17;78.12
64908;BME280;69061;52.236;5.188;2023-05-19T02:23:03;102709.09;;;11.15;79.46
64908;BME280;69061;52.236;5.188;2023-05-19T02:25:29;102699.72;;;11.09;79.73
64908;BME280;69061;52.236;5.188;2023-05-19T02:27:57;102705.97;;;11.13;81.12
64908;BME280;69061;52.236;5.188;2023-05-19T02:30:24;102689.06;;;11.09;79.94
64908;BME280;69061;52.236;5.188;2023-05-19T02:32:50;102690.97;;;11.08;78.92
64908;BME280;69061;52.236;5.188;2023-05-19T02:35:20;102698.31;;;11.11;79.14
64908;BME280;69061;52.236;5.188;2023-05-19T02:37:46;102692.50;;;11.09;79.26
64908;BME280;69061;52.236;5.188;2023-05-19T02:40:13;102686.88;;;11.11;80.14
64908;BME280;69061;52.236;5.188;2023-05-19T02:42:40;102675.94;;;11.04;80.39
64908;BME280;69061;52.236;5.188;2023-05-19T02:45:07;102678.28;;;11.05;80.14
64908;BME280;69061;52.236;5.188;2023-05-19T02:47:34;102682.19;;;11.08;80.47
64908;BME280;69061;52.236;5.188;2023-05-19T02:50:00;102692.06;;;11.07;80.17
64908;BME280;69061;52.236;5.188;2023-05-19T02:52:29;102684.25;;;11.02;81.03
64908;BME280;69061;52.236;5.188;2023-05-19T02:54:55;102682.50;;;11.06;80.82
64908;BME280;69061;52.236;5.188;2023-05-19T02:57:22;102691.91;;;11.04;80.54
64908;BME280;69061;52.236;5.188;2023-05-19T02:59:49;102681.16;;;11.00;80.63
64908;BME280;69061;52.236;5.188;2023-05-19T03:02:15;102681.75;;;10.97;80.63
64908;BME280;69061;52.236;5.188;2023-05-19T03:04:42;102673.00;;;10.97;80.73
64908;BME280;69061;52.236;5.188;2023-05-19T03:07:09;102671.00;;;10.93;81.35
64908;BME280;69061;52.236;5.188;2023-05-19T03:09:38;102674.09;;;10.95;82.31
64908;BME280;69061;52.236;5.188;2023-05-19T03:12:05;102669.09;;;10.94;82.17
64908;BME280;69061;52.236;5.188;2023-05-19T03:14:33;102646.47;;;10.79;81.90
64908;BME280;69061;52.236;5.188;2023-05-19T03:17:03;102666.28;;;10.90;81.88
64908;BME280;69061;52.236;5.188;2023-05-19T03:19:31;102676.16;;;10.90;81.03
64908;BME280;69061;52.236;5.188;2023-05-19T03:21:58;102669.28;;;10.89;80.41
64908;BME280;69061;52.236;5.188;2023-05-19T03:24:25;102675.41;;;10.89;82.20
64908;BME280;69061;52.236;5.188;2023-05-19T03:26:53;102672.41;;;10.91;82.01
64908;BME280;69061;52.236;5.188;2023-05-19T03:29:19;102677.59;;;10.87;81.31
64908;BME280;69061;52.236;5.188;2023-05-19T03:31:46;102677.44;;;10.84;80.86
64908;BME280;69061;52.236;5.188;2023-05-19T03:34:13;102660.44;;;10.76;81.29
64908;BME280;69061;52.236;5.188;2023-05-19T03:36:39;102669.50;;;10.75;82.30
64908;BME280;69061;52.236;5.188;2023-05-19T03:39:07;102673.06;;;10.79;83.35
64908;BME280;69061;52.236;5.188;2023-05-19T03:41:34;102662.91;;;10.81;83.94
64908;BME280;69061;52.236;5.188;2023-05-19T03:44:02;102650.53;;;10.85;84.68
64908;BME280;69061;52.236;5.188;2023-05-19T03:46:29;102657.50;;;10.99;85.49
64908;BME280;69061;52.236;5.188;2023-05-19T03:48:56;102657.19;;;11.00;84.48
64908;BME280;69061;52.236;5.188;2023-05-19T03:51:22;102658.16;;;10.95;85.11
64908;BME280;69061;52.236;5.188;2023-05-19T03:53:49;102663.75;;;11.03;84.80
64908;BME280;69061;52.236;5.188;2023-05-19T03:56:16;102655.78;;;11.03;84.08
64908;BME280;69061;52.236;5.188;2023-05-19T03:58:42;102658.56;;;11.06;84.63
64908;BME280;69061;52.236;5.188;2023-05-19T04:01:12;102666.22;;;11.08;83.30
64908;BME280;69061;52.236;5.188;2023-05-19T04:03:39;102655.13;;;11.06;83.29
64908;BME280;69061;52.236;5.188;2023-05-19T04:06:06;102659.22;;;11.03;82.95
64908;BME280;69061;52.236;5.188;2023-05-19T04:08:32;102655.31;;;11.01;82.68
64908;BME280;69061;52.236;5.188;2023-05-19T04:10:59;102666.72;;;11.01;82.39
64908;BME280;69061;52.236;5.188;2023-05-19T04:13:25;102663.47;;;10.95;82.64
64908;BME280;69061;52.236;5.188;2023-05-19T04:15:52;102659.72;;;10.97;84.25
64908;BME280;69061;52.236;5.188;2023-05-19T04:18:20;102664.38;;;11.00;84.07
64908;BME280;69061;52.236;5.188;2023-05-19T04:20:46;102659.53;;;11.02;84.02
64908;BME280;69061;52.236;5.188;2023-05-19T04:23:15;102668.56;;;11.09;83.53
64908;BME280;69061;52.236;5.188;2023-05-19T04:25:42;102673.44;;;11.07;82.46
64908;BME280;69061;52.236;5.188;2023-05-19T04:28:08;102679.72;;;11.03;82.59
64908;BME280;69061;52.236;5.188;2023-05-19T04:30:35;102676.59;;;11.01;82.38
64908;BME280;69061;52.236;5.188;2023-05-19T04:33:02;102686.31;;;10.97;83.15
64908;BME280;69061;52.236;5.188;2023-05-19T04:35:30;102672.03;;;11.01;84.37
64908;BME280;69061;52.236;5.188;2023-05-19T04:37:57;102674.69;;;11.10;83.64
64908;BME280;69061;52.236;5.188;2023-05-19T04:40:24;102677.00;;;11.11;83.87
64908;BME280;69061;52.236;5.188;2023-05-19T04:42:50;102676.03;;;11.16;83.55
64908;BME280;69061;52.236;5.188;2023-05-19T04:45:18;102682.59;;;11.19;83.60
64908;BME280;69061;52.236;5.188;2023-05-19T04:47:45;102677.28;;;11.19;83.02
64908;BME280;69061;52.236;5.188;2023-05-19T04:50:12;102678.09;;;11.19;82.75
64908;BME280;69061;52.236;5.188;2023-05-19T04:52:40;102671.97;;;11.19;83.00
64908;BME280;69061;52.236;5.188;2023-05-19T04:55:09;102684.00;;;11.25;83.71
64908;BME280;69061;52.236;5.188;2023-05-19T04:57:37;102677.06;;;11.33;84.27
64908;BME280;69061;52.236;5.188;2023-05-19T05:00:05;102686.56;;;11.42;84.21
64908;BME280;69061;52.236;5.188;2023-05-19T05:02:38;102682.16;;;11.46;83.39
64908;BME280;69061;52.236;5.188;2023-05-19T05:05:06;102688.72;;;11.49;82.56
64908;BME280;69061;52.236;5.188;2023-05-19T05:07:33;102688.38;;;11.51;82.64
64908;BME280;69061;52.236;5.188;2023-05-19T05:10:01;102692.94;;;11.50;82.09
64908;BME280;69061;52.236;5.188;2023-05-19T05:12:28;102691.31;;;11.58;81.47
64908;BME280;69061;52.236;5.188;2023-05-19T05:14:55;102689.56;;;11.62;82.31
64908;BME280;69061;52.236;5.188;2023-05-19T05:17:22;102694.84;;;11.71;82.04
64908;BME280;69061;52.236;5.188;2023-05-19T05:19:50;102691.53;;;11.74;81.22
64908;BME280;69061;52.236;5.188;2023-05-19T05:22:17;102694.00;;;11.79;80.98
64908;BME280;69061;52.236;5.188;2023-05-19T05:24:44;102693.00;;;11.84;81.67
64908;BME280;69061;52.236;5.188;2023-05-19T05:27:12;102700.16;;;11.92;81.05
64908;BME280;69061;52.236;5.188;2023-05-19T05:29:39;102690.75;;;11.94;80.95
64908;BME280;69061;52.236;5.188;2023-05-19T05:32:06;102703.38;;;12.06;80.67
64908;BME280;69061;52.236;5.188;2023-05-19T05:34:33;102704.41;;;12.14;80.14
64908;BME280;69061;52.236;5.188;2023-05-19T05:37:00;102711.09;;;12.20;79.37
64908;BME280;69061;52.236;5.188;2023-05-19T05:39:26;102700.56;;;12.24;79.55
64908;BME280;69061;52.236;5.188;2023-05-19T05:41:53;102707.38;;;12.34;79.12
64908;BME280;69061;52.236;5.188;2023-05-19T05:44:21;102704.16;;;12.40;78.75
64908;BME280;69061;52.236;5.188;2023-05-19T05:46:48;102706.44;;;12.51;78.07
64908;BME280;69061;52.236;5.188;2023-05-19T05:49:15;102702.13;;;12.58;78.00
64908;BME280;69061;52.236;5.188;2023-05-19T05:51:42;102704.47;;;12.72;77.74
64908;BME280;69061;52.236;5.188;2023-05-19T05:54:10;102703.25;;;12.82;77.18
64908;BME280;69061;52.236;5.188;2023-05-19T05:56:38;102708.72;;;12.98;76.90
64908;BME280;69061;52.236;5.188;2023-05-19T05:59:05;102701.28;;;13.04;74.99
64908;BME280;69061;52.236;5.188;2023-05-19T06:01:33;102695.03;;;13.00;74.69
64908;BME280;69061;52.236;5.188;2023-05-19T06:04:00;102704.50;;;13.09;75.34
64908;BME280;69061;52.236;5.188;2023-05-19T06:06:27;102707.72;;;13.15;75.71
64908;BME280;69061;52.236;5.188;2023-05-19T06:08:54;102715.97;;;13.22;75.67
64908;BME280;69061;52.236;5.188;2023-05-19T06:11:20;102711.59;;;13.30;74.81
64908;BME280;69061;52.236;5.188;2023-05-19T06:13:47;102703.94;;;13.28;74.29
64908;BME280;69061;52.236;5.188;2023-05-19T06:16:13;102708.53;;;13.40;73.59
64908;BME280;69061;52.236;5.188;2023-05-19T06:18:41;102702.50;;;13.43;73.31
64908;BME280;69061;52.236;5.188;2023-05-19T06:21:08;102704.59;;;13.50;73.14
64908;BME280;69061;52.236;5.188;2023-05-19T06:23:37;102704.50;;;13.59;73.47
64908;BME280;69061;52.236;5.188;2023-05-19T06:26:04;102700.91;;;13.67;72.01
64908;BME280;69061;52.236;5.188;2023-05-19T06:28:31;102696.09;;;13.73;71.10
64908;BME280;69061;52.236;5.188;2023-05-19T06:30:58;102701.22;;;13.78;71.30
64908;BME280;69061;52.236;5.188;2023-05-19T06:33:25;102702.31;;;13.77;70.15
64908;BME280;69061;52.236;5.188;2023-05-19T06:35:53;102703.44;;;13.76;70.06
64908;BME280;69061;52.236;5.188;2023-05-19T06:38:19;102696.63;;;13.78;70.46
64908;BME280;69061;52.236;5.188;2023-05-19T06:40:46;102695.19;;;13.81;70.73
64908;BME280;69061;52.236;5.188;2023-05-19T06:43:13;102691.84;;;13.84;70.40
64908;BME280;69061;52.236;5.188;2023-05-19T06:45:40;102687.03;;;13.90;70.35
64908;BME280;69061;52.236;5.188;2023-05-19T06:48:06;102692.47;;;13.93;69.72
64908;BME280;69061;52.236;5.188;2023-05-19T06:50:32;102690.34;;;13.99;69.65
64908;BME280;69061;52.236;5.188;2023-05-19T06:53:00;102701.59;;;14.05;69.24
64908;BME280;69061;52.236;5.188;2023-05-19T06:55:27;102694.44;;;14.09;68.76
64908;BME280;69061;52.236;5.188;2023-05-19T06:57:54;102699.09;;;14.12;68.31
64908;BME280;69061;52.236;5.188;2023-05-19T07:00:20;102694.13;;;14.26;67.88
64908;BME280;69061;52.236;5.188;2023-05-19T07:02:47;102693.44;;;14.29;67.91
64908;BME280;69061;52.236;5.188;2023-05-19T07:05:13;102696.56;;;14.31;67.29
64908;BME280;69061;52.236;5.188;2023-05-19T07:07:40;102704.31;;;14.37;68.10
64908;BME280;69061;52.236;5.188;2023-05-19T07:10:08;102704.16;;;14.45;67.62
64908;BME280;69061;52.236;5.188;2023-05-19T07:12:35;102702.47;;;14.53;67.90
64908;BME280;69061;52.236;5.188;2023-05-19T07:15:02;102706.44;;;14.59;66.73
64908;BME280;69061;52.236;5.188;2023-05-19T07:17:29;102706.25;;;14.52;65.42
64908;BME280;69061;52.236;5.188;2023-05-19T07:19:55;102706.88;;;14.61;66.79
64908;BME280;69061;52.236;5.188;2023-05-19T07:22:22;102702.47;;;14.69;66.76
64908;BME280;69061;52.236;5.188;2023-05-19T07:24:49;102704.56;;;14.76;66.36
64908;BME280;69061;52.236;5.188;2023-05-19T07:27:17;102703.94;;;14.82;65.50
64908;BME280;69061;52.236;5.188;2023-05-19T07:29:43;102697.94;;;14.86;64.17
64908;BME280;69061;52.236;5.188;2023-05-19T07:32:10;102694.91;;;14.87;64.02
64908;BME280;69061;52.236;5.188;2023-05-19T07:34:39;102697.03;;;14.97;63.43
64908;BME280;69061;52.236;5.188;2023-05-19T07:37:06;102702.91;;;15.03;63.00
64908;BME280;69061;52.236;5.188;2023-05-19T07:39:33;102698.00;;;15.05;62.57
64908;BME280;69061;52.236;5.188;2023-05-19T07:41:59;102688.75;;;15.03;62.75
64908;BME280;69061;52.236;5.188;2023-05-19T07:44:28;102696.25;;;15.13;62.37
64908;BME280;69061;52.236;5.188;2023-05-19T07:46:55;102701.06;;;15.23;62.53
64908;BME280;69061;52.236;5.188;2023-05-19T07:49:22;102689.38;;;15.31;62.35
64908;BME280;69061;52.236;5.188;2023-05-19T07:51:49;102693.78;;;15.40;62.71
64908;BME280;69061;52.236;5.188;2023-05-19T07:54:15;102688.00;;;15.57;63.12
64908;BME280;69061;52.236;5.188;2023-05-19T07:56:42;102691.13;;;15.79;62.15
64908;BME280;69061;52.236;5.188;2023-05-19T07:59:09;102694.97;;;15.97;60.67
64908;BME280;69061;52.236;5.188;2023-05-19T08:01:36;102687.19;;;16.12;59.46
64908;BME280;69061;52.236;5.188;2023-05-19T08:04:03;102682.06;;;16.26;58.97
64908;BME280;69061;52.236;5.188;2023-05-19T08:06:30;102687.47;;;16.49;58.87
64908;BME280;69061;52.236;5.188;2023-05-19T08:08:56;102687.03;;;16.71;58.68
64908;BME280;69061;52.236;5.188;2023-05-19T08:11:23;102688.94;;;16.93;58.24
64908;BME280;69061;52.236;5.188;2023-05-19T08:13:50;102687.69;;;17.14;56.94
64908;BME280;69061;52.236;5.188;2023-05-19T08:16:16;102685.16;;;17.25;56.55
64908;BME280;69061;52.236;5.188;2023-05-19T08:18:44;102677.34;;;17.43;55.78
64908;BME280;69061;52.236;5.188;2023-05-19T08:21:11;102685.19;;;17.55;54.33
64908;BME280;69061;52.236;5.188;2023-05-19T08:23:37;102667.88;;;17.56;52.78
64908;BME280;69061;52.236;5.188;2023-05-19T08:26:04;102667.41;;;17.47;52.77
64908;BME280;69061;52.236;5.188;2023-05-19T08:28:31;102670.09;;;17.47;54.01
64908;BME280;69061;52.236;5.188;2023-05-19T08:30:57;102673.59;;;17.51;52.37
64908;BME280;69061;52.236;5.188;2023-05-19T08:33:24;102669.16;;;17.66;51.61
64908;BME280;69061;52.236;5.188;2023-05-19T08:35:52;102664.72;;;17.81;51.51
64908;BME280;69061;52.236;5.188;2023-05-19T08:38:19;102653.53;;;17.79;50.56
64908;BME280;69061;52.236;5.188;2023-05-19T08:40:46;102654.00;;;17.84;50.36
64908;BME280;69061;52.236;5.188;2023-05-19T08:43:12;102661.91;;;17.70;49.85
64908;BME280;69061;52.236;5.188;2023-05-19T08:45:42;102655.22;;;17.57;51.11
64908;BME280;69061;52.236;5.188;2023-05-19T08:48:09;102644.91;;;17.62;51.98
64908;BME280;69061;52.236;5.188;2023-05-19T08:50:39;102652.38;;;17.76;52.07
64908;BME280;69061;52.236;5.188;2023-05-19T08:53:12;102649.97;;;18.01;50.91
64908;BME280;69061;52.236;5.188;2023-05-19T08:55:47;102640.22;;;18.27;50.16
64908;BME280;69061;52.236;5.188;2023-05-19T08:58:17;102633.84;;;18.50;50.08
64908;BME280;69061;52.236;5.188;2023-05-19T09:00:46;102642.88;;;18.76;50.00
64908;BME280;69061;52.236;5.188;2023-05-19T09:03:14;102635.72;;;18.94;48.64
64908;BME280;69061;52.236;5.188;2023-05-19T09:05:42;102632.63;;;18.96;47.91
64908;BME280;69061;52.236;5.188;2023-05-19T09:08:11;102636.53;;;19.06;48.04
64908;BME280;69061;52.236;5.188;2023-05-19T09:10:38;102637.38;;;19.21;47.61
64908;BME280;69061;52.236;5.188;2023-05-19T09:13:05;102645.88;;;19.33;47.07
64908;BME280;69061;52.236;5.188;2023-05-19T09:15:31;102628.94;;;19.29;47.17
64908;BME280;69061;52.236;5.188;2023-05-19T09:18:07;102620.16;;;19.50;47.83
64908;BME280;69061;52.236;5.188;2023-05-19T09:20:39;102635.63;;;19.72;47.95
64908;BME280;69061;52.236;5.188;2023-05-19T09:23:06;102631.84;;;19.98;47.46
64908;BME280;69061;52.236;5.188;2023-05-19T09:25:34;102627.63;;;20.04;45.71
64908;BME280;69061;52.236;5.188;2023-05-19T09:28:01;102632.22;;;19.89;46.15
64908;BME280;69061;52.236;5.188;2023-05-19T09:30:27;102636.81;;;19.89;46.95
64908;BME280;69061;52.236;5.188;2023-05-19T09:32:54;102638.78;;;19.95;46.48
64908;BME280;69061;52.236;5.188;2023-05-19T09:35:21;102629.13;;;19.98;46.12
64908;BME280;69061;52.236;5.188;2023-05-19T09:37:47;102624.50;;;20.09;45.71
64908;BME280;69061;52.236;5.188;2023-05-19T09:40:14;102639.19;;;20.26;44.73
64908;BME280;69061;52.236;5.188;2023-05-19T09:42:42;102628.78;;;20.39;43.57
64908;BME280;69061;52.236;5.188;2023-05-19T09:45:09;102626.84;;;20.40;43.67
64908;BME280;69061;52.236;5.188;2023-05-19T09:47:37;102626.81;;;20.54;44.21
64908;BME280;69061;52.236;5.188;2023-05-19T09:50:05;102627.19;;;20.74;44.73
64908;BME280;69061;52.236;5.188;2023-05-19T09:52:35;102624.84;;;20.87;42.76
64908;BME280;69061;52.236;5.188;2023-05-19T09:55:03;102632.91;;;21.01;42.69
64908;BME280;69061;52.236;5.188;2023-05-19T09:57:34;102626.41;;;20.88;40.42
64908;BME280;69061;52.236;5.188;2023-05-19T10:00:05;102630.69;;;20.57;40.07
64908;BME280;69061;52.236;5.188;2023-05-19T10:02:40;102626.06;;;20.21;42.04
64908;BME280;69061;52.236;5.188;2023-05-19T10:05:10;102610.25;;;20.12;41.75
64908;BME280;69061;52.236;5.188;2023-05-19T10:07:37;102630.31;;;20.22;42.83
64908;BME280;69061;52.236;5.188;2023-05-19T10:10:10;102629.16;;;20.45;41.78
64908;BME280;69061;52.236;5.188;2023-05-19T10:12:37;102627.59;;;20.69;41.55
64908;BME280;69061;52.236;5.188;2023-05-19T10:15:07;102624.06;;;20.94;41.32
64908;BME280;69061;52.236;5.188;2023-05-19T10:17:36;102615.06;;;21.18;39.99
64908;BME280;69061;52.236;5.188;2023-05-19T10:20:04;102618.88;;;21.35;39.81
64908;BME280;69061;52.236;5.188;2023-05-19T10:22:33;102614.56;;;21.49;39.68
64908;BME280;69061;52.236;5.188;2023-05-19T10:24:59;102612.50;;;21.75;38.89
64908;BME280;69061;52.236;5.188;2023-05-19T10:27:27;102608.88;;;21.92;39.40
64908;BME280;69061;52.236;5.188;2023-05-19T10:29:57;102610.72;;;22.06;38.30
64908;BME280;69061;52.236;5.188;2023-05-19T10:32:28;102612.59;;;22.13;38.00
64908;BME280;69061;52.236;5.188;2023-05-19T10:35:15;102610.47;;;21.90;36.59
64908;BME280;69061;52.236;5.188;2023-05-19T10:37:52;102596.88;;;21.93;37.58
64908;BME280;69061;52.236;5.188;2023-05-19T10:40:26;102600.72;;;21.99;38.87
64908;BME280;69061;52.236;5.188;2023-05-19T10:43:08;102598.72;;;22.07;38.50
64908;BME280;69061;52.236;5.188;2023-05-19T10:45:44;102585.44;;;22.20;38.15
64908;BME280;69061;52.236;5.188;2023-05-19T10:48:14;102595.75;;;22.40;37.08
64908;BME280;69061;52.236;5.188;2023-05-19T10:50:42;102589.44;;;22.50;35.91
64908;BME280;69061;52.236;5.188;2023-05-19T10:53:13;102587.91;;;22.49;35.18
64908;BME280;69061;52.236;5.188;2023-05-19T10:55:46;102588.28;;;22.51;36.31
64908;BME280;69061;52.236;5.188;2023-05-19T10:58:35;102580.75;;;22.66;36.61
64908;BME280;69061;52.236;5.188;2023-05-19T11:01:06;102590.41;;;22.70;35.44
64908;BME280;69061;52.236;5.188;2023-05-19T11:03:43;102578.81;;;22.66;34.45
64908;BME280;69061;52.236;5.188;2023-05-19T11:06:18;102588.16;;;22.62;35.06
64908;BME280;69061;52.236;5.188;2023-05-19T11:08:45;102587.72;;;22.67;35.93
64908;BME280;69061;52.236;5.188;2023-05-19T11:11:13;102581.53;;;22.66;35.79
64908;BME280;69061;52.236;5.188;2023-05-19T11:13:42;102583.75;;;22.75;35.79
64908;BME280;69061;52.236;5.188;2023-05-19T11:16:12;102584.59;;;22.68;35.21
64908;BME280;69061;52.236;5.188;2023-05-19T11:18:38;102573.03;;;22.64;36.74
64908;BME280;69061;52.236;5.188;2023-05-19T11:21:06;102582.19;;;22.78;36.63
64908;BME280;69061;52.236;5.188;2023-05-19T11:23:36;102579.44;;;22.81;35.40
64908;BME280;69061;52.236;5.188;2023-05-19T11:26:06;102582.91;;;22.82;35.49
64908;BME280;69061;52.236;5.188;2023-05-19T11:28:33;102581.72;;;22.83;35.83
64908;BME280;69061;52.236;5.188;2023-05-19T11:31:01;102579.25;;;22.96;35.69
64908;BME280;69061;52.236;5.188;2023-05-19T11:33:28;102573.03;;;22.99;34.67
64908;BME280;69061;52.236;5.188;2023-05-19T11:35:57;102570.63;;;23.04;34.67
64908;BME280;69061;52.236;5.188;2023-05-19T11:38:27;102579.41;;;23.16;34.46
64908;BME280;69061;52.236;5.188;2023-05-19T11:40:54;102575.94;;;23.12;34.50
64908;BME280;69061;52.236;5.188;2023-05-19T11:43:22;102561.50;;;23.22;35.46
64908;BME280;69061;52.236;5.188;2023-05-19T11:45:48;102556.81;;;23.26;33.81
64908;BME280;69061;52.236;5.188;2023-05-19T11:48:15;102558.31;;;23.27;34.26
64908;BME280;69061;52.236;5.188;2023-05-19T11:50:42;102559.09;;;23.28;34.41
64908;BME280;69061;52.236;5.188;2023-05-19T11:53:11;102561.81;;;23.28;33.15
64908;BME280;69061;52.236;5.188;2023-05-19T11:55:44;102552.38;;;23.36;33.97
64908;BME280;69061;52.236;5.188;2023-05-19T11:58:11;102558.72;;;23.26;33.04
64908;BME280;69061;52.236;5.188;2023-05-19T12:00:39;102549.94;;;23.18;33.62
64908;BME280;69061;52.236;5.188;2023-05-19T12:03:07;102557.59;;;23.23;35.19
64908;BME280;69061;52.236;5.188;2023-05-19T12:05:36;102560.56;;;23.32;34.28
64908;BME280;69061;52.236;5.188;2023-05-19T12:08:03;102557.66;;;23.47;34.03
64908;BME280;69061;52.236;5.188;2023-05-19T12:10:30;102554.78;;;23.58;33.91
64908;BME280;69061;52.236;5.188;2023-05-19T12:13:02;102557.66;;;23.70;34.23
64908;BME280;69061;52.236;5.188;2023-05-19T12:15:30;102563.28;;;23.83;33.91
64908;BME280;69061;52.236;5.188;2023-05-19T12:17:59;102535.97;;;23.94;34.26
64908;BME280;69061;52.236;5.188;2023-05-19T12:20:27;102551.44;;;23.97;33.73
64908;BME280;69061;52.236;5.188;2023-05-19T12:22:54;102539.88;;;23.93;33.11
64908;BME280;69061;52.236;5.188;2023-05-19T12:25:21;102539.28;;;23.82;33.28
64908;BME280;69061;52.236;5.188;2023-05-19T12:27:48;102537.41;;;23.79;33.08
64908;BME280;69061;52.236;5.188;2023-05-19T12:30:25;102528.81;;;23.57;33.62
64908;BME280;69061;52.236;5.188;2023-05-19T12:32:52;102534.63;;;23.59;34.10
64908;BME280;69061;52.236;5.188;2023-05-19T12:35:19;102537.97;;;23.66;34.00
64908;BME280;69061;52.236;5.188;2023-05-19T12:37:48;102533.56;;;23.76;33.64
64908;BME280;69061;52.236;5.188;2023-05-19T12:40:15;102522.56;;;23.83;33.75
64908;BME280;69061;52.236;5.188;2023-05-19T12:42:43;102524.03;;;23.88;34.02
64908;BME280;69061;52.236;5.188;2023-05-19T12:45:10;102526.53;;;24.02;33.58
64908;BME280;69061;52.236;5.188;2023-05-19T12:47:38;102525.22;;;24.11;33.44
64908;BME280;69061;52.236;5.188;2023-05-19T12:50:07;102517.53;;;24.05;33.49
64908;BME280;69061;52.236;5.188;2023-05-19T12:52:40;102515.44;;;23.93;33.20
64908;BME280;69061;52.236;5.188;2023-05-19T12:55:08;102517.19;;;23.80;33.38
64908;BME280;69061;52.236;5.188;2023-05-19T12:57:36;102518.44;;;23.75;33.20
64908;BME280;69061;52.236;5.188;2023-05-19T13:00:04;102518.06;;;23.73;33.76
64908;BME280;69061;52.236;5.188;2023-05-19T13:02:32;102516.75;;;23.61;33.40